sensor_id;sensor_type;location;lat;lon;timestamp;P1;durP1;ratioP1;P2;durP2;ratioP2
34775;SDS011;20989;52.566;13.346;2023-02-21T00:01:08;0.73;;;0.73;;
34775;SDS011;20989;52.566;13.346;2023-02-21T00:04:31;0.80;;;0.80;;
34775;SDS011;20989;52.566;13.346;2023-02-21T00:07:50;1.02;;;0.80;;
34775;SDS011;20989;52.566;13.346;2023-02-21T00:11:09;1.35;;;1.02;;
34775;SDS011;20989;52.566;13.346;2023-02-21T00:14:28;0.80;;;0.80;;
34775;SDS011;20989;52.566;13.346;2023-02-21T00:17:47;0.88;;;0.88;;
34775;SDS011;20989;52.566;13.346;2023-02-21T00:21:06;0.85;;;0.60;;
34775;SDS011;20989;52.566;13.346;2023-02-21T00:24:25;0.55;;;0.55;;
34775;SDS011;20989;52.566;13.346;2023-02-21T00:27:44;0.68;;;0.65;;
34775;SDS011;20989;52.566;13.346;2023-02-21T00:31:04;1.00;;;0.90;;
34775;SDS011;20989;52.566;13.346;2023-02-21T00:34:23;0.68;;;0.68;;
34775;SDS011;20989;52.566;13.346;2023-02-21T00:37:42;1.00;;;1.00;;
34775;SDS011;20989;52.566;13.346;2023-02-21T00:41:01;0.65;;;0.65;;
34775;SDS011;20989;52.566;13.346;2023-02-21T00:44:20;1.15;;;0.82;;
34775;SDS011;20989;52.566;13.346;2023-02-21T00:47:40;0.80;;;0.80;;
34775;SDS011;20989;52.566;13.346;2023-02-21T00:50:59;0.95;;;0.75;;
34775;SDS011;20989;52.566;13.346;2023-02-21T00:54:18;0.90;;;0.90;;
34775;SDS011;20989;52.566;13.346;2023-02-21T00:57:37;0.70;;;0.70;;
34775;SDS011;20989;52.566;13.346;2023-02-21T01:00:56;0.80;;;0.80;;
34775;SDS011;20989;52.566;13.346;2023-02-21T01:04:15;0.65;;;0.60;;
34775;SDS011;20989;52.566;13.346;2023-02-21T01:07:35;1.00;;;0.63;;
34775;SDS011;20989;52.566;13.346;2023-02-21T01:10:55;0.70;;;0.70;;
34775;SDS011;20989;52.566;13.346;2023-02-21T01:14:14;0.73;;;0.73;;
34775;SDS011;20989;52.566;13.346;2023-02-21T01:17:33;0.82;;;0.80;;
34775;SDS011;20989;52.566;13.346;2023-02-21T01:20:52;0.80;;;0.77;;
34775;SDS011;20989;52.566;13.346;2023-02-21T01:24:12;0.85;;;0.73;;
34775;SDS011;20989;52.566;13.346;2023-02-21T01:27:32;0.77;;;0.77;;
34775;SDS011;20989;52.566;13.346;2023-02-21T01:30:51;0.60;;;0.60;;
34775;SDS011;20989;52.566;13.346;2023-02-21T01:34:11;0.73;;;0.63;;
34775;SDS011;20989;52.566;13.346;2023-02-21T01:37:30;0.80;;;0.80;;
34775;SDS011;20989;52.566;13.346;2023-02-21T01:40:49;0.52;;;0.52;;
34775;SDS011;20989;52.566;13.346;2023-02-21T01:44:28;0.70;;;0.70;;
34775;SDS011;20989;52.566;13.346;2023-02-21T01:47:50;0.60;;;0.60;;
34775;SDS011;20989;52.566;13.346;2023-02-21T01:51:09;0.70;;;0.70;;
34775;SDS011;20989;52.566;13.346;2023-02-21T01:54:33;0.60;;;0.60;;
34775;SDS011;20989;52.566;13.346;2023-02-21T01:57:58;1.75;;;0.70;;
34775;SDS011;20989;52.566;13.346;2023-02-21T02:01:35;0.70;;;0.70;;
34775;SDS011;20989;52.566;13.346;2023-02-21T02:04:58;0.80;;;0.80;;
34775;SDS011;20989;52.566;13.346;2023-02-21T02:08:19;0.60;;;0.60;;
34775;SDS011;20989;52.566;13.346;2023-02-21T02:21:52;0.77;;;0.73;;
34775;SDS011;20989;52.566;13.346;2023-02-21T02:25:22;0.60;;;0.60;;
34775;SDS011;20989;52.566;13.346;2023-02-21T02:35:31;0.80;;;0.75;;
34775;SDS011;20989;52.566;13.346;2023-02-21T02:44:49;0.50;;;0.50;;
34775;SDS011;20989;52.566;13.346;2023-02-21T02:48:04;0.77;;;0.70;;
34775;SDS011;20989;52.566;13.346;2023-02-21T02:51:20;0.85;;;0.73;;
34775;SDS011;20989;52.566;13.346;2023-02-21T02:54:21;0.40;;;0.40;;
34775;SDS011;20989;52.566;13.346;2023-02-21T02:57:22;0.70;;;0.70;;
34775;SDS011;20989;52.566;13.346;2023-02-21T03:00:22;0.45;;;0.45;;
34775;SDS011;20989;52.566;13.346;2023-02-21T03:03:37;0.50;;;0.50;;
34775;SDS011;20989;52.566;13.346;2023-02-21T03:14:01;0.50;;;0.50;;
34775;SDS011;20989;52.566;13.346;2023-02-21T03:17:14;0.60;;;0.60;;
34775;SDS011;20989;52.566;13.346;2023-02-21T03:20:19;0.70;;;0.70;;
34775;SDS011;20989;52.566;13.346;2023-02-21T03:23:21;0.70;;;0.70;;
34775;SDS011;20989;52.566;13.346;2023-02-21T03:26:23;0.60;;;0.60;;
34775;SDS011;20989;52.566;13.346;2023-02-21T03:29:26;0.63;;;0.63;;
34775;SDS011;20989;52.566;13.346;2023-02-21T03:35:39;0.68;;;0.68;;
34775;SDS011;20989;52.566;13.346;2023-02-21T03:38:40;0.60;;;0.60;;
34775;SDS011;20989;52.566;13.346;2023-02-21T03:41:41;0.80;;;0.80;;
34775;SDS011;20989;52.566;13.346;2023-02-21T03:44:41;0.50;;;0.50;;
34775;SDS011;20989;52.566;13.346;2023-02-21T03:47:42;1.05;;;0.90;;
34775;SDS011;20989;52.566;13.346;2023-02-21T03:50:43;1.05;;;0.65;;
34775;SDS011;20989;52.566;13.346;2023-02-21T03:53:43;0.50;;;0.50;;
34775;SDS011;20989;52.566;13.346;2023-02-21T03:56:44;0.38;;;0.38;;
34775;SDS011;20989;52.566;13.346;2023-02-21T03:59:45;0.70;;;0.70;;
34775;SDS011;20989;52.566;13.346;2023-02-21T04:02:45;0.80;;;0.80;;
34775;SDS011;20989;52.566;13.346;2023-02-21T04:05:46;0.70;;;0.70;;
34775;SDS011;20989;52.566;13.346;2023-02-21T04:08:46;0.50;;;0.50;;
34775;SDS011;20989;52.566;13.346;2023-02-21T04:11:47;0.95;;;0.70;;
34775;SDS011;20989;52.566;13.346;2023-02-21T04:14:48;0.50;;;0.50;;
34775;SDS011;20989;52.566;13.346;2023-02-21T04:17:48;0.60;;;0.60;;
34775;SDS011;20989;52.566;13.346;2023-02-21T04:20:49;0.63;;;0.63;;
34775;SDS011;20989;52.566;13.346;2023-02-21T04:23:49;1.08;;;0.77;;
34775;SDS011;20989;52.566;13.346;2023-02-21T04:26:50;0.60;;;0.60;;
34775;SDS011;20989;52.566;13.346;2023-02-21T04:29:51;0.85;;;0.70;;
34775;SDS011;20989;52.566;13.346;2023-02-21T04:32:51;0.50;;;0.50;;
34775;SDS011;20989;52.566;13.346;2023-02-21T04:35:52;0.73;;;0.73;;
34775;SDS011;20989;52.566;13.346;2023-02-21T04:38:52;0.70;;;0.70;;
34775;SDS011;20989;52.566;13.346;2023-02-21T04:41:53;0.45;;;0.45;;
34775;SDS011;20989;52.566;13.346;2023-02-21T04:44:54;0.60;;;0.60;;
34775;SDS011;20989;52.566;13.346;2023-02-21T04:47:54;0.82;;;0.80;;
34775;SDS011;20989;52.566;13.346;2023-02-21T04:50:55;0.70;;;0.70;;
34775;SDS011;20989;52.566;13.346;2023-02-21T04:53:56;0.70;;;0.70;;
34775;SDS011;20989;52.566;13.346;2023-02-21T04:56:57;0.52;;;0.52;;
34775;SDS011;20989;52.566;13.346;2023-02-21T05:03:42;0.75;;;0.60;;
34775;SDS011;20989;52.566;13.346;2023-02-21T05:06:43;0.80;;;0.80;;
34775;SDS011;20989;52.566;13.346;2023-02-21T05:09:44;0.60;;;0.60;;
34775;SDS011;20989;52.566;13.346;2023-02-21T05:12:44;0.82;;;0.82;;
34775;SDS011;20989;52.566;13.346;2023-02-21T05:15:45;0.73;;;0.73;;
34775;SDS011;20989;52.566;13.346;2023-02-21T05:18:46;0.75;;;0.75;;
34775;SDS011;20989;52.566;13.346;2023-02-21T05:21:47;0.60;;;0.60;;
34775;SDS011;20989;52.566;13.346;2023-02-21T05:24:48;0.70;;;0.70;;
34775;SDS011;20989;52.566;13.346;2023-02-21T05:27:50;0.60;;;0.60;;
34775;SDS011;20989;52.566;13.346;2023-02-21T05:30:51;0.55;;;0.55;;
34775;SDS011;20989;52.566;13.346;2023-02-21T05:33:51;0.57;;;0.57;;
34775;SDS011;20989;52.566;13.346;2023-02-21T05:36:52;0.80;;;0.80;;
34775;SDS011;20989;52.566;13.346;2023-02-21T05:39:53;0.88;;;0.60;;
34775;SDS011;20989;52.566;13.346;2023-02-21T05:42:53;0.80;;;0.80;;
34775;SDS011;20989;52.566;13.346;2023-02-21T05:45:54;0.70;;;0.70;;
34775;SDS011;20989;52.566;13.346;2023-02-21T05:48:55;0.73;;;0.73;;
34775;SDS011;20989;52.566;13.346;2023-02-21T05:51:56;0.80;;;0.80;;
34775;SDS011;20989;52.566;13.346;2023-02-21T05:54:57;0.75;;;0.75;;
34775;SDS011;20989;52.566;13.346;2023-02-21T05:57:57;0.80;;;0.80;;
34775;SDS011;20989;52.566;13.346;2023-02-21T06:00:58;0.60;;;0.60;;
34775;SDS011;20989;52.566;13.346;2023-02-21T06:03:59;0.60;;;0.60;;
34775;SDS011;20989;52.566;13.346;2023-02-21T06:06:59;0.80;;;0.80;;
34775;SDS011;20989;52.566;13.346;2023-02-21T06:10:00;0.70;;;0.70;;
34775;SDS011;20989;52.566;13.346;2023-02-21T06:13:00;0.70;;;0.70;;
34775;SDS011;20989;52.566;13.346;2023-02-21T06:16:01;4.50;;;2.28;;
34775;SDS011;20989;52.566;13.346;2023-02-21T06:19:02;4.55;;;3.67;;
34775;SDS011;20989;52.566;13.346;2023-02-21T06:22:04;3.72;;;3.42;;
34775;SDS011;20989;52.566;13.346;2023-02-21T06:25:05;4.50;;;4.10;;
34775;SDS011;20989;52.566;13.346;2023-02-21T06:28:06;4.85;;;4.55;;
34775;SDS011;20989;52.566;13.346;2023-02-21T06:31:07;4.00;;;3.70;;
34775;SDS011;20989;52.566;13.346;2023-02-21T06:34:08;3.63;;;3.20;;
34775;SDS011;20989;52.566;13.346;2023-02-21T06:37:08;2.83;;;2.70;;
34775;SDS011;20989;52.566;13.346;2023-02-21T06:40:09;2.65;;;2.45;;
34775;SDS011;20989;52.566;13.346;2023-02-21T06:43:10;3.28;;;1.80;;
34775;SDS011;20989;52.566;13.346;2023-02-21T06:46:14;1.60;;;1.52;;
34775;SDS011;20989;52.566;13.346;2023-02-21T06:49:20;1.40;;;1.30;;
34775;SDS011;20989;52.566;13.346;2023-02-21T06:52:20;1.70;;;1.60;;
34775;SDS011;20989;52.566;13.346;2023-02-21T06:55:21;1.58;;;1.23;;
34775;SDS011;20989;52.566;13.346;2023-02-21T06:58:22;1.13;;;1.13;;
34775;SDS011;20989;52.566;13.346;2023-02-21T07:01:26;1.40;;;1.30;;
34775;SDS011;20989;52.566;13.346;2023-02-21T07:04:29;1.00;;;0.90;;
34775;SDS011;20989;52.566;13.346;2023-02-21T07:07:30;1.10;;;1.10;;
34775;SDS011;20989;52.566;13.346;2023-02-21T07:10:30;1.05;;;1.05;;
34775;SDS011;20989;52.566;13.346;2023-02-21T07:13:31;1.05;;;1.05;;
34775;SDS011;20989;52.566;13.346;2023-02-21T07:16:32;0.95;;;0.95;;
34775;SDS011;20989;52.566;13.346;2023-02-21T07:19:33;0.82;;;0.82;;
34775;SDS011;20989;52.566;13.346;2023-02-21T07:22:33;2.55;;;1.10;;
34775;SDS011;20989;52.566;13.346;2023-02-21T07:25:34;0.80;;;0.80;;
34775;SDS011;20989;52.566;13.346;2023-02-21T07:28:34;0.90;;;0.90;;
34775;SDS011;20989;52.566;13.346;2023-02-21T07:31:35;0.70;;;0.70;;
34775;SDS011;20989;52.566;13.346;2023-02-21T07:34:36;0.60;;;0.60;;
34775;SDS011;20989;52.566;13.346;2023-02-21T07:37:36;0.65;;;0.63;;
34775;SDS011;20989;52.566;13.346;2023-02-21T07:40:37;0.80;;;0.80;;
34775;SDS011;20989;52.566;13.346;2023-02-21T07:43:38;0.95;;;0.95;;
34775;SDS011;20989;52.566;13.346;2023-02-21T07:46:38;0.98;;;0.90;;
34775;SDS011;20989;52.566;13.346;2023-02-21T07:49:41;0.80;;;0.80;;
34775;SDS011;20989;52.566;13.346;2023-02-21T07:52:42;0.63;;;0.63;;
34775;SDS011;20989;52.566;13.346;2023-02-21T07:55:44;0.80;;;0.63;;
34775;SDS011;20989;52.566;13.346;2023-02-21T07:58:44;0.63;;;0.63;;
34775;SDS011;20989;52.566;13.346;2023-02-21T08:01:45;0.90;;;0.90;;
34775;SDS011;20989;52.566;13.346;2023-02-21T08:04:49;0.80;;;0.80;;
34775;SDS011;20989;52.566;13.346;2023-02-21T08:07:50;0.73;;;0.73;;
34775;SDS011;20989;52.566;13.346;2023-02-21T08:10:51;1.00;;;0.90;;
34775;SDS011;20989;52.566;13.346;2023-02-21T08:13:52;0.90;;;0.90;;
34775;SDS011;20989;52.566;13.346;2023-02-21T08:16:53;1.05;;;0.88;;
34775;SDS011;20989;52.566;13.346;2023-02-21T08:19:53;2.63;;;0.77;;
34775;SDS011;20989;52.566;13.346;2023-02-21T08:22:54;0.85;;;0.80;;
34775;SDS011;20989;52.566;13.346;2023-02-21T08:25:54;0.60;;;0.60;;
34775;SDS011;20989;52.566;13.346;2023-02-21T08:28:55;0.75;;;0.75;;
34775;SDS011;20989;52.566;13.346;2023-02-21T08:31:56;0.75;;;0.60;;
34775;SDS011;20989;52.566;13.346;2023-02-21T08:34:56;0.60;;;0.60;;
34775;SDS011;20989;52.566;13.346;2023-02-21T08:37:57;2.90;;;1.08;;
34775;SDS011;20989;52.566;13.346;2023-02-21T08:41:02;7.32;;;0.93;;
34775;SDS011;20989;52.566;13.346;2023-02-21T08:44:04;5.25;;;0.90;;
34775;SDS011;20989;52.566;13.346;2023-02-21T08:47:06;0.80;;;0.70;;
34775;SDS011;20989;52.566;13.346;2023-02-21T08:50:06;5.00;;;1.05;;
34775;SDS011;20989;52.566;13.346;2023-02-21T08:53:07;3.45;;;0.70;;
34775;SDS011;20989;52.566;13.346;2023-02-21T08:56:10;0.70;;;0.70;;
34775;SDS011;20989;52.566;13.346;2023-02-21T08:59:11;1.95;;;0.82;;
34775;SDS011;20989;52.566;13.346;2023-02-21T09:02:15;0.80;;;0.68;;
34775;SDS011;20989;52.566;13.346;2023-02-21T09:05:19;0.77;;;0.77;;
34775;SDS011;20989;52.566;13.346;2023-02-21T09:08:23;1.38;;;0.75;;
34775;SDS011;20989;52.566;13.346;2023-02-21T09:11:25;2.33;;;1.00;;
34775;SDS011;20989;52.566;13.346;2023-02-21T09:14:26;6.25;;;0.70;;
34775;SDS011;20989;52.566;13.346;2023-02-21T09:17:28;2.15;;;1.10;;
34775;SDS011;20989;52.566;13.346;2023-02-21T09:20:32;1.55;;;0.70;;
34775;SDS011;20989;52.566;13.346;2023-02-21T09:23:33;4.28;;;0.90;;
34775;SDS011;20989;52.566;13.346;2023-02-21T09:26:34;1.73;;;0.80;;
34775;SDS011;20989;52.566;13.346;2023-02-21T09:29:35;2.60;;;0.82;;
34775;SDS011;20989;52.566;13.346;2023-02-21T09:32:36;0.70;;;0.68;;
34775;SDS011;20989;52.566;13.346;2023-02-21T09:35:37;0.73;;;0.63;;
34775;SDS011;20989;52.566;13.346;2023-02-21T09:38:39;1.40;;;0.80;;
34775;SDS011;20989;52.566;13.346;2023-02-21T09:41:41;0.80;;;0.80;;
34775;SDS011;20989;52.566;13.346;2023-02-21T09:44:45;6.72;;;1.38;;
34775;SDS011;20989;52.566;13.346;2023-02-21T09:47:48;11.50;;;1.60;;
34775;SDS011;20989;52.566;13.346;2023-02-21T09:50:54;6.38;;;1.35;;
34775;SDS011;20989;52.566;13.346;2023-02-21T09:53:58;4.22;;;1.00;;
34775;SDS011;20989;52.566;13.346;2023-02-21T09:57:06;4.05;;;1.00;;
34775;SDS011;20989;52.566;13.346;2023-02-21T10:00:16;6.03;;;1.20;;
34775;SDS011;20989;52.566;13.346;2023-02-21T10:06:41;2.92;;;0.80;;
34775;SDS011;20989;52.566;13.346;2023-02-21T10:16:42;2.17;;;1.20;;
34775;SDS011;20989;52.566;13.346;2023-02-21T10:19:48;2.28;;;1.13;;
34775;SDS011;20989;52.566;13.346;2023-02-21T10:22:53;3.47;;;1.50;;
34775;SDS011;20989;52.566;13.346;2023-02-21T10:25:56;4.68;;;1.23;;
34775;SDS011;20989;52.566;13.346;2023-02-21T10:29:01;6.53;;;1.52;;
34775;SDS011;20989;52.566;13.346;2023-02-21T10:32:05;12.57;;;1.75;;
34775;SDS011;20989;52.566;13.346;2023-02-21T10:35:07;3.65;;;1.30;;
34775;SDS011;20989;52.566;13.346;2023-02-21T10:38:18;2.30;;;1.25;;
34775;SDS011;20989;52.566;13.346;2023-02-21T10:41:22;8.80;;;1.55;;
34775;SDS011;20989;52.566;13.346;2023-02-21T10:44:29;10.30;;;1.38;;
34775;SDS011;20989;52.566;13.346;2023-02-21T10:47:44;3.65;;;1.40;;
34775;SDS011;20989;52.566;13.346;2023-02-21T10:51:12;2.30;;;1.20;;
34775;SDS011;20989;52.566;13.346;2023-02-21T10:57:22;3.03;;;1.23;;
34775;SDS011;20989;52.566;13.346;2023-02-21T11:00:27;2.95;;;0.90;;
34775;SDS011;20989;52.566;13.346;2023-02-21T11:03:30;2.78;;;1.17;;
34775;SDS011;20989;52.566;13.346;2023-02-21T11:06:32;2.25;;;1.23;;
34775;SDS011;20989;52.566;13.346;2023-02-21T11:09:42;2.40;;;1.30;;
34775;SDS011;20989;52.566;13.346;2023-02-21T11:12:54;2.20;;;1.20;;
34775;SDS011;20989;52.566;13.346;2023-02-21T11:16:18;2.15;;;1.05;;
34775;SDS011;20989;52.566;13.346;2023-02-21T11:19:21;3.00;;;1.27;;
34775;SDS011;20989;52.566;13.346;2023-02-21T11:25:41;4.60;;;1.42;;
34775;SDS011;20989;52.566;13.346;2023-02-21T11:28:42;4.45;;;1.30;;
34775;SDS011;20989;52.566;13.346;2023-02-21T11:31:46;6.70;;;1.27;;
34775;SDS011;20989;52.566;13.346;2023-02-21T11:34:46;7.78;;;1.25;;
34775;SDS011;20989;52.566;13.346;2023-02-21T11:37:50;2.20;;;1.15;;
34775;SDS011;20989;52.566;13.346;2023-02-21T11:40:51;5.43;;;1.67;;
34775;SDS011;20989;52.566;13.346;2023-02-21T11:43:52;1.88;;;1.40;;
34775;SDS011;20989;52.566;13.346;2023-02-21T11:47:00;3.00;;;1.52;;
34775;SDS011;20989;52.566;13.346;2023-02-21T11:50:26;4.78;;;1.17;;
34775;SDS011;20989;52.566;13.346;2023-02-21T11:53:36;2.13;;;1.10;;
34775;SDS011;20989;52.566;13.346;2023-02-21T11:56:43;3.55;;;1.27;;
34775;SDS011;20989;52.566;13.346;2023-02-21T12:03:29;5.40;;;1.50;;
34775;SDS011;20989;52.566;13.346;2023-02-21T12:21:03;4.00;;;1.30;;
34775;SDS011;20989;52.566;13.346;2023-02-21T12:23:57;2.78;;;1.33;;
34775;SDS011;20989;52.566;13.346;2023-02-21T12:27:22;3.50;;;1.40;;
34775;SDS011;20989;52.566;13.346;2023-02-21T12:47:15;3.42;;;1.70;;
34775;SDS011;20989;52.566;13.346;2023-02-21T12:50:35;2.53;;;0.90;;
34775;SDS011;20989;52.566;13.346;2023-02-21T12:53:42;4.40;;;1.63;;
34775;SDS011;20989;52.566;13.346;2023-02-21T12:57:02;2.20;;;1.50;;
34775;SDS011;20989;52.566;13.346;2023-02-21T13:16:00;9.60;;;2.17;;
34775;SDS011;20989;52.566;13.346;2023-02-21T13:19:04;9.13;;;2.00;;
34775;SDS011;20989;52.566;13.346;2023-02-21T13:26:14;5.10;;;1.77;;
34775;SDS011;20989;52.566;13.346;2023-02-21T13:29:25;4.47;;;1.45;;
34775;SDS011;20989;52.566;13.346;2023-02-21T13:32:36;6.70;;;1.98;;
34775;SDS011;20989;52.566;13.346;2023-02-21T13:35:38;13.88;;;2.50;;
34775;SDS011;20989;52.566;13.346;2023-02-21T13:38:39;3.55;;;1.42;;
34775;SDS011;20989;52.566;13.346;2023-02-21T13:44:45;4.38;;;1.42;;
34775;SDS011;20989;52.566;13.346;2023-02-21T13:50:53;5.78;;;2.17;;
34775;SDS011;20989;52.566;13.346;2023-02-21T13:54:06;5.03;;;1.50;;
34775;SDS011;20989;52.566;13.346;2023-02-21T13:57:27;4.55;;;1.30;;
34775;SDS011;20989;52.566;13.346;2023-02-21T14:03:33;4.10;;;1.55;;
34775;SDS011;20989;52.566;13.346;2023-02-21T14:06:34;4.78;;;1.30;;
34775;SDS011;20989;52.566;13.346;2023-02-21T14:09:38;3.25;;;1.05;;
34775;SDS011;20989;52.566;13.346;2023-02-21T14:12:43;3.83;;;2.05;;
34775;SDS011;20989;52.566;13.346;2023-02-21T14:15:45;3.63;;;1.33;;
34775;SDS011;20989;52.566;13.346;2023-02-21T14:18:51;3.00;;;1.67;;
34775;SDS011;20989;52.566;13.346;2023-02-21T14:22:16;4.13;;;1.60;;
34775;SDS011;20989;52.566;13.346;2023-02-21T14:25:25;3.85;;;1.50;;
34775;SDS011;20989;52.566;13.346;2023-02-21T14:36:04;3.25;;;1.95;;
34775;SDS011;20989;52.566;13.346;2023-02-21T14:38:37;3.50;;;1.98;;
34775;SDS011;20989;52.566;13.346;2023-02-21T14:44:49;5.53;;;2.38;;
34775;SDS011;20989;52.566;13.346;2023-02-21T14:57:49;6.90;;;2.67;;
34775;SDS011;20989;52.566;13.346;2023-02-21T15:01:04;13.13;;;2.67;;
34775;SDS011;20989;52.566;13.346;2023-02-21T15:04:45;6.57;;;2.78;;
34775;SDS011;20989;52.566;13.346;2023-02-21T15:10:47;10.88;;;2.78;;
34775;SDS011;20989;52.566;13.346;2023-02-21T15:14:09;4.32;;;2.00;;
34775;SDS011;20989;52.566;13.346;2023-02-21T15:17:16;8.25;;;3.40;;
34775;SDS011;20989;52.566;13.346;2023-02-21T15:20:19;4.45;;;2.45;;
34775;SDS011;20989;52.566;13.346;2023-02-21T15:23:20;6.75;;;2.35;;
34775;SDS011;20989;52.566;13.346;2023-02-21T15:26:29;6.95;;;2.97;;
34775;SDS011;20989;52.566;13.346;2023-02-21T15:29:31;8.00;;;3.35;;
34775;SDS011;20989;52.566;13.346;2023-02-21T15:32:32;7.78;;;3.22;;
34775;SDS011;20989;52.566;13.346;2023-02-21T15:35:36;6.93;;;2.92;;
34775;SDS011;20989;52.566;13.346;2023-02-21T15:38:41;7.30;;;2.95;;
34775;SDS011;20989;52.566;13.346;2023-02-21T15:41:49;6.55;;;2.75;;
34775;SDS011;20989;52.566;13.346;2023-02-21T15:44:52;3.47;;;2.30;;
34775;SDS011;20989;52.566;13.346;2023-02-21T15:47:58;7.70;;;2.80;;
34775;SDS011;20989;52.566;13.346;2023-02-21T15:51:01;6.82;;;2.53;;
34775;SDS011;20989;52.566;13.346;2023-02-21T15:57:23;5.53;;;2.40;;
34775;SDS011;20989;52.566;13.346;2023-02-21T16:00:33;5.32;;;2.50;;
34775;SDS011;20989;52.566;13.346;2023-02-21T16:06:44;3.63;;;2.05;;
34775;SDS011;20989;52.566;13.346;2023-02-21T16:09:49;5.55;;;2.25;;
34775;SDS011;20989;52.566;13.346;2023-02-21T16:12:57;5.75;;;2.72;;
34775;SDS011;20989;52.566;13.346;2023-02-21T16:16:00;4.72;;;2.30;;
34775;SDS011;20989;52.566;13.346;2023-02-21T16:19:00;6.00;;;2.22;;
34775;SDS011;20989;52.566;13.346;2023-02-21T16:25:23;4.55;;;2.10;;
34775;SDS011;20989;52.566;13.346;2023-02-21T16:28:24;2.80;;;2.00;;
34775;SDS011;20989;52.566;13.346;2023-02-21T16:31:26;3.80;;;2.50;;
34775;SDS011;20989;52.566;13.346;2023-02-21T16:34:32;7.00;;;3.05;;
34775;SDS011;20989;52.566;13.346;2023-02-21T16:37:33;9.68;;;3.90;;
34775;SDS011;20989;52.566;13.346;2023-02-21T16:40:34;13.18;;;6.32;;
34775;SDS011;20989;52.566;13.346;2023-02-21T16:43:35;13.88;;;6.10;;
34775;SDS011;20989;52.566;13.346;2023-02-21T16:46:36;12.80;;;5.68;;
34775;SDS011;20989;52.566;13.346;2023-02-21T16:49:36;12.65;;;5.35;;
34775;SDS011;20989;52.566;13.346;2023-02-21T16:52:37;12.82;;;5.88;;
34775;SDS011;20989;52.566;13.346;2023-02-21T16:55:38;9.68;;;5.25;;
34775;SDS011;20989;52.566;13.346;2023-02-21T16:58:42;7.90;;;4.28;;
34775;SDS011;20989;52.566;13.346;2023-02-21T17:04:47;11.15;;;6.13;;
34775;SDS011;20989;52.566;13.346;2023-02-21T17:07:48;10.70;;;5.07;;
34775;SDS011;20989;52.566;13.346;2023-02-21T17:10:50;10.82;;;5.28;;
34775;SDS011;20989;52.566;13.346;2023-02-21T17:13:51;10.63;;;5.38;;
34775;SDS011;20989;52.566;13.346;2023-02-21T17:16:51;11.77;;;5.60;;
34775;SDS011;20989;52.566;13.346;2023-02-21T17:19:52;11.20;;;5.13;;
34775;SDS011;20989;52.566;13.346;2023-02-21T17:22:53;11.63;;;6.28;;
34775;SDS011;20989;52.566;13.346;2023-02-21T17:25:54;12.88;;;5.70;;
34775;SDS011;20989;52.566;13.346;2023-02-21T17:28:55;11.02;;;5.20;;
34775;SDS011;20989;52.566;13.346;2023-02-21T17:31:56;9.55;;;5.05;;
34775;SDS011;20989;52.566;13.346;2023-02-21T17:34:57;10.90;;;5.50;;
34775;SDS011;20989;52.566;13.346;2023-02-21T17:37:58;13.68;;;6.53;;
34775;SDS011;20989;52.566;13.346;2023-02-21T17:41:02;16.50;;;8.13;;
34775;SDS011;20989;52.566;13.346;2023-02-21T17:44:03;28.83;;;12.65;;
34775;SDS011;20989;52.566;13.346;2023-02-21T17:47:04;33.90;;;16.25;;
34775;SDS011;20989;52.566;13.346;2023-02-21T17:50:06;56.65;;;23.50;;
34775;SDS011;20989;52.566;13.346;2023-02-21T17:53:07;37.83;;;16.35;;
34775;SDS011;20989;52.566;13.346;2023-02-21T17:56:07;39.92;;;17.60;;
34775;SDS011;20989;52.566;13.346;2023-02-21T17:59:08;58.65;;;25.92;;
34775;SDS011;20989;52.566;13.346;2023-02-21T18:02:09;54.33;;;23.52;;
34775;SDS011;20989;52.566;13.346;2023-02-21T18:05:10;51.50;;;23.33;;
34775;SDS011;20989;52.566;13.346;2023-02-21T18:08:11;54.55;;;24.23;;
34775;SDS011;20989;52.566;13.346;2023-02-21T18:11:13;55.40;;;26.27;;
34775;SDS011;20989;52.566;13.346;2023-02-21T18:14:15;59.33;;;24.73;;
34775;SDS011;20989;52.566;13.346;2023-02-21T18:17:16;53.40;;;24.75;;
34775;SDS011;20989;52.566;13.346;2023-02-21T18:20:17;52.47;;;23.77;;
34775;SDS011;20989;52.566;13.346;2023-02-21T18:23:18;52.22;;;23.60;;
34775;SDS011;20989;52.566;13.346;2023-02-21T18:26:19;51.55;;;21.08;;
34775;SDS011;20989;52.566;13.346;2023-02-21T18:29:20;40.42;;;19.17;;
34775;SDS011;20989;52.566;13.346;2023-02-21T18:32:22;41.90;;;20.02;;
34775;SDS011;20989;52.566;13.346;2023-02-21T18:35:22;41.65;;;18.33;;
34775;SDS011;20989;52.566;13.346;2023-02-21T18:38:23;37.70;;;18.90;;
34775;SDS011;20989;52.566;13.346;2023-02-21T18:41:25;38.95;;;17.73;;
34775;SDS011;20989;52.566;13.346;2023-02-21T18:44:25;40.85;;;18.17;;
34775;SDS011;20989;52.566;13.346;2023-02-21T18:47:26;29.67;;;16.00;;
34775;SDS011;20989;52.566;13.346;2023-02-21T18:50:27;40.42;;;18.45;;
34775;SDS011;20989;52.566;13.346;2023-02-21T18:53:27;40.83;;;17.13;;
34775;SDS011;20989;52.566;13.346;2023-02-21T18:56:28;37.33;;;17.35;;
34775;SDS011;20989;52.566;13.346;2023-02-21T18:59:29;33.78;;;16.88;;
34775;SDS011;20989;52.566;13.346;2023-02-21T19:02:29;32.72;;;15.55;;
34775;SDS011;20989;52.566;13.346;2023-02-21T19:05:31;29.67;;;15.10;;
34775;SDS011;20989;52.566;13.346;2023-02-21T19:08:32;23.58;;;13.15;;
34775;SDS011;20989;52.566;13.346;2023-02-21T19:11:33;28.48;;;13.30;;
34775;SDS011;20989;52.566;13.346;2023-02-21T19:14:33;25.58;;;13.23;;
34775;SDS011;20989;52.566;13.346;2023-02-21T19:17:36;26.02;;;13.60;;
34775;SDS011;20989;52.566;13.346;2023-02-21T19:20:36;25.25;;;12.80;;
34775;SDS011;20989;52.566;13.346;2023-02-21T19:23:39;25.17;;;12.98;;
34775;SDS011;20989;52.566;13.346;2023-02-21T19:26:40;27.58;;;12.85;;
34775;SDS011;20989;52.566;13.346;2023-02-21T19:29:41;24.92;;;12.57;;
34775;SDS011;20989;52.566;13.346;2023-02-21T19:32:42;29.45;;;13.07;;
34775;SDS011;20989;52.566;13.346;2023-02-21T19:35:43;31.05;;;13.63;;
34775;SDS011;20989;52.566;13.346;2023-02-21T19:38:44;26.38;;;12.07;;
34775;SDS011;20989;52.566;13.346;2023-02-21T19:41:45;21.23;;;11.68;;
34775;SDS011;20989;52.566;13.346;2023-02-21T19:44:46;29.90;;;12.43;;
34775;SDS011;20989;52.566;13.346;2023-02-21T19:47:46;27.50;;;12.40;;
34775;SDS011;20989;52.566;13.346;2023-02-21T19:50:47;25.67;;;12.20;;
34775;SDS011;20989;52.566;13.346;2023-02-21T19:53:48;23.63;;;11.55;;
34775;SDS011;20989;52.566;13.346;2023-02-21T19:56:48;23.95;;;11.90;;
34775;SDS011;20989;52.566;13.346;2023-02-21T19:59:49;27.65;;;10.20;;
34775;SDS011;20989;52.566;13.346;2023-02-21T20:02:50;30.73;;;10.18;;
34775;SDS011;20989;52.566;13.346;2023-02-21T20:05:51;33.50;;;10.73;;
34775;SDS011;20989;52.566;13.346;2023-02-21T20:08:52;22.02;;;10.48;;
34775;SDS011;20989;52.566;13.346;2023-02-21T20:11:53;31.90;;;11.02;;
34775;SDS011;20989;52.566;13.346;2023-02-21T20:14:54;30.15;;;8.77;;
34775;SDS011;20989;52.566;13.346;2023-02-21T20:17:55;22.13;;;10.00;;
34775;SDS011;20989;52.566;13.346;2023-02-21T20:20:56;17.55;;;8.93;;
34775;SDS011;20989;52.566;13.346;2023-02-21T20:23:56;16.50;;;8.13;;
34775;SDS011;20989;52.566;13.346;2023-02-21T20:26:57;21.27;;;8.98;;
34775;SDS011;20989;52.566;13.346;2023-02-21T20:29:58;16.60;;;7.60;;
34775;SDS011;20989;52.566;13.346;2023-02-21T20:32:58;16.08;;;8.60;;
34775;SDS011;20989;52.566;13.346;2023-02-21T20:36:00;18.83;;;8.75;;
34775;SDS011;20989;52.566;13.346;2023-02-21T20:39:01;14.63;;;7.00;;
34775;SDS011;20989;52.566;13.346;2023-02-21T20:42:03;15.32;;;7.47;;
34775;SDS011;20989;52.566;13.346;2023-02-21T20:45:07;12.57;;;7.63;;